Ossian — WDF2623 — position and weather

sailwx.info

Track history (hours):
 
Tides and Currents Weather Stations Pressure Air Temp Water Temp Dewpoint Dewpoint Depression Visibility Wind Speed Wind Dir Waves Ship Positions

Ossian

Owner: Hartzell, Scott R, Florence, OR. More information available from US FCC via Universal Licensing System and Coast Guard Vessel Documentation Center.

Last reported at 2016-Jul-30 11:15 UTC. Time now 2016-Aug-29 23:33 UTC.
Position N 43°43' W 124°47'.
Warning: this ship's position is 30 days out of date.

Length 26 m.

Type: Fishing. MMSI: 366773410.

Date/timePositionNaut miles runAvg speedWind from/ knotsBaromVisibWave heightAir tempDewpointWater temp
2016-Jul-30 11:15N 43°43' W 124°47'1 1.1
2016-Jul-30 10:30N 43°43' W 124°47'2 1.5
2016-Jul-30 09:26N 43°45' W 124°47'1 1.2
2016-Jul-30 08:33N 43°46' W 124°47'1 1.1
2016-Jul-30 07:25N 43°47' W 124°47'27 5.2
2016-Jul-30 02:14N 44°12' W 124°59'0 0.6
2016-Jul-30 01:31N 44°12' W 124°59'3 2.9
2016-Jul-30 00:27N 44°09' W 124°58'6 7.0
2016-Jul-29 23:33N 44°03' W 124°54'9 7.3
2016-Jul-29 22:18N 43°55' W 124°48'20 2.1
2016-Jul-29 12:24N 43°35' W 124°42'6 7.2
2016-Jul-29 11:33N 43°39' W 124°49'2 1.8
2016-Jul-29 10:33N 43°41' W 124°50'1 1.3
2016-Jul-29 09:30N 43°42' W 124°50'2 1.6
2016-Jul-29 08:33N 43°44' W 124°49'2 1.6
2016-Jul-29 07:33N 43°45' W 124°48'2 1.7
2016-Jul-29 06:33N 43°47' W 124°47'5 5.0
2016-Jul-29 05:33N 43°52' W 124°48'9 8.3
2016-Jul-29 04:31N 43°59' W 124°55'7 6.8
2016-Jul-29 03:32N 44°04' W 124°59'1 0.7
2016-Jul-29 02:33N 44°04' W 124°59'3 3.2
2016-Jul-29 01:33N 44°01' W 124°58'0 0.1
2016-Jul-29 00:33N 44°01' W 124°58'1 1.3
2016-Jul-28 23:33N 44°02' W 124°58'2 1.7
2016-Jul-28 22:33N 44°04' W 124°58'2 1.7
2016-Jul-28 21:34N 44°05' W 124°58'1 1.5
2016-Jul-28 20:33N 44°07' W 124°58'0 0.4
2016-Jul-28 19:33N 44°07' W 124°59'1 0.9
2016-Jul-28 18:33N 44°06' W 124°59'6 5.7
2016-Jul-28 17:28N 44°12' W 124°59'6 6.4
2016-Jul-28 16:30N 44°06' W 124°58'1 0.8
2016-Jul-28 15:28N 44°05' W 124°58'2 1.6
2016-Jul-28 14:30N 44°04' W 124°59'2 1.2
2016-Jul-28 12:28N 44°02' W 124°57'3 1.1
2016-Jul-28 09:24N 44°05' W 124°60'2 1.9
2016-Jul-28 08:33N 44°06' W 125°00'2 1.7
2016-Jul-28 07:33N 44°08' W 125°00'2 1.6
2016-Jul-28 06:33N 44°10' W 125°00'2 1.5
2016-Jul-28 05:33N 44°11' W 125°01'8 6.9
2016-Jul-28 04:21N 44°10' W 125°12'3 1.1
2016-Jul-28 01:32N 44°07' W 125°13'11 3.7
2016-Jul-27 22:33N 44°06' W 124°58'0 0.3
2016-Jul-27 21:18N 44°06' W 124°58'4 5.1
2016-Jul-27 20:33N 44°02' W 124°57'15 3.7
2016-Jul-27 16:22N 43°50' W 124°45'5 2.3
2016-Jul-27 14:17N 43°53' W 124°40'3 1.8
2016-Jul-27 12:33N 43°50' W 124°41'2 1.1
2016-Jul-27 10:19N 43°48' W 124°44'1 1.1
2016-Jul-27 09:30N 43°49' W 124°43'2 0.1
2016-Jul-26 19:27N 43°50' W 124°42'3 2.6
2016-Jul-26 18:30N 43°50' W 124°45'1 1.1
2016-Jul-26 17:31N 43°51' W 124°45'  
Track history (hours):
 
Tides and Currents Weather Stations Pressure Air Temp Water Temp Dewpoint Dewpoint Depression Visibility Wind Speed Wind Dir Waves Ship Positions

Ossian

Owner: Hartzell, Scott R, Florence, OR. More information available from US FCC via Universal Licensing System and Coast Guard Vessel Documentation Center.

Last reported at 2016-Jul-30 11:15 UTC. Time now 2016-Aug-29 23:33 UTC.
Position N 43°43' W 124°47'.
Warning: this ship's position is 30 days out of date.

Length 26 m.

Type: Fishing. MMSI: 366773410.

Date/timePositionNaut miles runAvg speedWind from/ knotsBaromVisibWave heightAir tempDewpointWater temp
2016-Jul-30 11:15N 43°43' W 124°47'1 1.1
2016-Jul-30 10:30N 43°43' W 124°47'2 1.5
2016-Jul-30 09:26N 43°45' W 124°47'1 1.2
2016-Jul-30 08:33N 43°46' W 124°47'1 1.1
2016-Jul-30 07:25N 43°47' W 124°47'27 5.2
2016-Jul-30 02:14N 44°12' W 124°59'0 0.6
2016-Jul-30 01:31N 44°12' W 124°59'3 2.9
2016-Jul-30 00:27N 44°09' W 124°58'6 7.0
2016-Jul-29 23:33N 44°03' W 124°54'9 7.3
2016-Jul-29 22:18N 43°55' W 124°48'20 2.1
2016-Jul-29 12:24N 43°35' W 124°42'6 7.2
2016-Jul-29 11:33N 43°39' W 124°49'2 1.8
2016-Jul-29 10:33N 43°41' W 124°50'1 1.3
2016-Jul-29 09:30N 43°42' W 124°50'2 1.6
2016-Jul-29 08:33N 43°44' W 124°49'2 1.6
2016-Jul-29 07:33N 43°45' W 124°48'2 1.7
2016-Jul-29 06:33N 43°47' W 124°47'5 5.0
2016-Jul-29 05:33N 43°52' W 124°48'9 8.3
2016-Jul-29 04:31N 43°59' W 124°55'7 6.8
2016-Jul-29 03:32N 44°04' W 124°59'1 0.7
2016-Jul-29 02:33N 44°04' W 124°59'3 3.2
2016-Jul-29 01:33N 44°01' W 124°58'0 0.1
2016-Jul-29 00:33N 44°01' W 124°58'1 1.3
2016-Jul-28 23:33N 44°02' W 124°58'2 1.7
2016-Jul-28 22:33N 44°04' W 124°58'2 1.7
2016-Jul-28 21:34N 44°05' W 124°58'1 1.5
2016-Jul-28 20:33N 44°07' W 124°58'0 0.4
2016-Jul-28 19:33N 44°07' W 124°59'1 0.9
2016-Jul-28 18:33N 44°06' W 124°59'6 5.7
2016-Jul-28 17:28N 44°12' W 124°59'6 6.4
2016-Jul-28 16:30N 44°06' W 124°58'1 0.8
2016-Jul-28 15:28N 44°05' W 124°58'2 1.6
2016-Jul-28 14:30N 44°04' W 124°59'2 1.2
2016-Jul-28 12:28N 44°02' W 124°57'3 1.1
2016-Jul-28 09:24N 44°05' W 124°60'2 1.9
2016-Jul-28 08:33N 44°06' W 125°00'2 1.7
2016-Jul-28 07:33N 44°08' W 125°00'2 1.6
2016-Jul-28 06:33N 44°10' W 125°00'2 1.5
2016-Jul-28 05:33N 44°11' W 125°01'8 6.9
2016-Jul-28 04:21N 44°10' W 125°12'3 1.1
2016-Jul-28 01:32N 44°07' W 125°13'11 3.7
2016-Jul-27 22:33N 44°06' W 124°58'0 0.3
2016-Jul-27 21:18N 44°06' W 124°58'4 5.1
2016-Jul-27 20:33N 44°02' W 124°57'15 3.7
2016-Jul-27 16:22N 43°50' W 124°45'5 2.3
2016-Jul-27 14:17N 43°53' W 124°40'3 1.8
2016-Jul-27 12:33N 43°50' W 124°41'2 1.1
2016-Jul-27 10:19N 43°48' W 124°44'1 1.1
2016-Jul-27 09:30N 43°49' W 124°43'2 0.1
2016-Jul-26 19:27N 43°50' W 124°42'3 2.6
2016-Jul-26 18:30N 43°50' W 124°45'1 1.1
2016-Jul-26 17:31N 43°51' W 124°45'  

Dump ship's entire track history